Time;durP1;ratioP1;P1;durP2;ratioP2;P2;SDS_P1;SDS_P2;PMS_P1;PMS_P2;Temp;Humidity;BMP_temperature;BMP_pressure;BME280_temperature;BME280_humidity;BME280_pressure;Samples;Min_cycle;Max_cycle;Signal;HPM_P1;HPM_P2
2023/09/02 00:02:52;;;;;;;15.23;12.77;;;;;;;15.03;71.17;101257.09;15610746;28;20042;-48
2023/09/02 00:10:26;;;;;;;13.95;12.45;;;;;;;14.95;71.42;101262.78;15607306;28;20050;-51
2023/09/02 00:18:00;;;;;;;13.45;11.45;;;;;;;14.54;72.03;101258.88;15607322;28;20422;-51
2023/09/02 00:25:35;;;;;;;12.88;11.25;;;;;;;14.23;72.64;101238.19;15613681;28;20075;-49
2023/09/02 00:33:10;;;;;;;17.17;12.85;;;;;;;14.54;71.87;101261.56;15612889;28;20073;-47
2023/09/02 00:40:51;;;;;;;18.20;14.23;;;;;;;14.53;71.82;101257.22;15624442;28;20038;-53
2023/09/02 00:48:30;;;;;;;17.13;13.00;;;;;;;14.51;71.42;101270.16;15625882;28;20103;-47
2023/09/02 00:56:04;;;;;;;19.60;13.95;;;;;;;14.21;72.47;101269.13;15608164;28;20059;-51
2023/09/02 01:03:41;;;;;;;17.65;13.40;;;;;;;14.30;72.06;101265.94;15615615;28;20077;-47
2023/09/02 01:11:16;;;;;;;17.58;13.45;;;;;;;14.37;71.35;101274.00;15608062;28;20524;-50
2023/09/02 01:18:50;;;;;;;;;;;;;;;14.21;72.55;101267.25;15584503;28;20045;-49
2023/09/02 01:26:37;;;;;;;17.77;11.93;;;;;;;14.07;72.47;101263.03;15571894;28;20004;-49
2023/09/02 01:34:13;;;;;;;14.25;11.55;;;;;;;14.05;72.32;101275.94;15610356;28;20060;-47
2023/09/02 01:41:49;;;;;;;16.02;11.68;;;;;;;13.97;72.39;101292.38;15607747;28;20087;-51
2023/09/02 01:49:27;;;;;;;13.25;11.85;;;;;;;14.01;71.90;101293.59;15597965;28;20037;-48
2023/09/02 01:57:01;;;;;;;15.25;11.40;;;;;;;13.87;71.58;101284.78;15599488;28;20060;-47
2023/09/02 02:04:43;;;;;;;11.35;9.93;;;;;;;13.29;73.53;101319.97;15584366;28;20029;-49
2023/09/02 02:12:32;;;;;;;13.65;9.80;;;;;;;13.44;73.56;101323.22;15600273;28;20291;-46
2023/09/02 02:20:12;;;;;;;13.57;10.13;;;;;;;13.66;72.72;101323.75;15601446;28;20045;-51
2023/09/02 02:27:59;;;;;;;18.10;11.85;;;;;;;13.74;73.00;101320.75;15610238;28;20042;-47
2023/09/02 02:35:38;;;;;;;14.10;11.02;;;;;;;13.86;73.13;101325.50;15617722;28;20061;-47
2023/09/02 02:43:12;;;;;;;15.27;11.32;;;;;;;13.90;72.55;101327.53;15618593;28;20065;-47
2023/09/02 02:50:52;;;;;;;14.85;11.77;;;;;;;14.12;72.24;101340.66;15617186;28;20083;-50
2023/09/02 02:58:26;;;;;;;12.68;10.68;;;;;;;13.92;72.72;101336.22;15601575;28;20069;-49
2023/09/02 03:06:03;;;;;;;11.77;10.30;;;;;;;13.87;72.30;101337.94;15608696;28;20038;-47
2023/09/02 03:13:37;;;;;;;15.30;9.80;;;;;;;13.93;72.10;101361.34;15588714;28;20050;-49
2023/09/02 03:21:23;;;;;;;14.10;11.70;;;;;;;13.91;72.45;101360.75;15601547;28;20033;-48
2023/09/02 03:28:59;;;;;;;15.38;11.68;;;;;;;13.74;73.41;101361.25;15581832;28;20053;-47
2023/09/02 03:36:34;;;;;;;16.63;11.45;;;;;;;13.87;73.64;101362.22;15590447;28;20038;-48
2023/09/02 03:44:09;;;;;;;12.88;11.45;;;;;;;13.71;73.40;101361.69;15628783;22;20087;-47
2023/09/02 03:51:44;;;;;;;12.50;10.35;;;;;;;13.79;73.61;101374.91;15669868;28;20045;-47
2023/09/02 03:59:23;;;;;;;13.43;10.45;;;;;;;13.86;73.20;101366.78;15655271;28;20128;-48
2023/09/02 04:07:00;;;;;;;11.73;10.40;;;;;;;13.88;72.83;101367.38;15671950;28;20091;-46
2023/09/02 04:14:36;;;;;;;12.05;9.02;;;;;;;13.83;73.23;101364.50;15662989;28;20413;-49
2023/09/02 04:22:16;;;;;;;14.30;9.25;;;;;;;13.86;72.20;101380.28;15687355;28;20037;-47
2023/09/02 04:29:50;;;;;;;12.05;9.23;;;;;;;13.75;72.48;101389.03;15687057;28;20136;-48
2023/09/02 04:37:27;;;;;;;11.70;9.85;;;;;;;13.60;72.82;101386.63;15666697;28;20075;-47
2023/09/02 04:45:02;;;;;;;12.23;9.82;;;;;;;13.60;72.63;101405.50;15674167;28;20045;-47
2023/09/02 04:52:39;;;;;;;14.98;10.15;;;;;;;13.64;72.71;101414.00;15666013;28;20124;-47
2023/09/02 05:00:15;;;;;;;14.05;10.15;;;;;;;13.75;73.03;101418.72;15685278;28;20463;-47
2023/09/02 05:07:50;;;;;;;12.77;9.75;;;;;;;13.90;73.16;101423.88;15684544;28;20056;-47
2023/09/02 05:15:25;;;;;;;13.13;9.65;;;;;;;13.87;73.25;101433.19;15661861;28;20033;-48
2023/09/02 05:23:04;;;;;;;12.48;9.25;;;;;;;14.12;73.22;101446.75;15684493;28;20078;-47
2023/09/02 05:30:37;;;;;;;15.25;9.75;;;;;;;14.35;73.24;101451.63;15685235;28;20120;-50
2023/09/02 05:38:13;;;;;;;14.77;10.50;;;;;;;14.17;73.75;101465.84;15683286;28;20057;-48
2023/09/02 05:45:48;;;;;;;13.07;11.05;;;;;;;14.63;72.64;101456.66;15683153;28;20033;-49
2023/09/02 05:53:26;;;;;;;14.98;11.73;;;;;;;14.92;73.02;101467.84;15672984;28;20160;-49
2023/09/02 06:01:04;;;;;;;13.82;12.32;;;;;;;15.31;72.72;101472.06;15647302;28;20045;-49
2023/09/02 06:08:40;;;;;;;14.95;13.45;;;;;;;15.14;74.43;101481.81;15670693;28;20044;-46
2023/09/02 06:16:14;;;;;;;16.00;13.02;;;;;;;15.12;76.03;101478.50;15676994;28;20056;-47
2023/09/02 06:23:50;;;;;;;14.63;12.25;;;;;;;15.85;74.44;101483.16;15684007;28;20033;-49
2023/09/02 06:31:26;;;;;;;19.08;11.90;;;;;;;16.05;73.82;101484.56;15674244;28;20033;-51
2023/09/02 06:39:01;;;;;;;13.15;10.98;;;;;;;16.05;73.07;101500.00;15679206;28;20056;-49
2023/09/02 06:46:37;;;;;;;14.88;11.02;;;;;;;16.15;70.79;101515.69;15679925;28;20045;-48
2023/09/02 06:54:11;;;;;;;14.45;9.70;;;;;;;16.45;70.71;101511.09;15679781;28;20132;-47
2023/09/02 07:01:45;;;;;;;13.10;9.02;;;;;;;17.83;68.02;101515.28;15678400;28;20064;-49
2023/09/02 07:09:21;;;;;;;13.82;8.35;;;;;;;18.27;66.46;101523.75;15678970;28;20073;-49
2023/09/02 07:16:54;;;;;;;12.05;7.22;;;;;;;18.42;64.18;101536.00;15670090;28;20057;-48
2023/09/02 07:24:28;;;;;;;;;;;;;;;18.77;64.03;101539.41;15657143;28;20042;-49
2023/09/02 07:32:01;;;;;;;10.05;5.88;;;;;;;18.70;64.05;101538.75;15678737;28;19971;-51
2023/09/02 07:39:36;;;;;;;9.75;5.70;;;;;;;18.60;62.23;101552.09;15677249;28;20087;-49
2023/09/02 07:47:11;;;;;;;9.93;5.13;;;;;;;18.59;60.27;101562.16;15675243;28;20047;-49
2023/09/02 07:54:47;;;;;;;8.63;4.90;;;;;;;19.85;57.35;101566.41;15670436;28;20045;-48
2023/09/02 08:02:24;;;;;;;9.60;4.60;;;;;;;19.86;56.11;101576.22;15676524;28;20041;-47
2023/09/02 08:09:58;;;;;;;10.15;4.35;;;;;;;20.39;57.66;101567.38;15667004;28;20545;-48
2023/09/02 08:17:36;;;;;;;8.20;4.07;;;;;;;19.71;58.69;101581.47;15667931;28;20486;-48
2023/09/02 08:25:11;;;;;;;9.40;4.43;;;;;;;19.89;57.37;101586.63;15667145;28;20438;-49
2023/09/02 08:32:44;;;;;;;6.68;3.92;;;;;;;19.67;58.01;101586.59;15676329;28;20043;-49
2023/09/02 08:40:18;;;;;;;11.13;3.85;;;;;;;19.26;60.10;101609.63;15675316;28;20087;-48
2023/09/02 08:47:58;;;;;;;7.35;3.72;;;;;;;19.58;59.06;101612.56;15673929;28;20048;-48
2023/09/02 08:55:33;;;;;;;8.82;4.88;;;;;;;19.40;60.49;101619.13;15677097;28;20045;-49
2023/09/02 09:03:11;;;;;;;12.23;4.97;;;;;;;20.05;59.69;101614.91;15687115;28;20037;-47
2023/09/02 09:10:47;;;;;;;9.52;5.25;;;;;;;18.98;61.50;101618.63;15685761;28;20485;-50
2023/09/02 09:18:21;;;;;;;7.22;3.95;;;;;;;20.57;57.68;101614.50;15677529;28;20128;-50
2023/09/02 09:25:56;;;;;;;7.43;3.65;;;;;;;21.07;53.92;101608.72;15652294;28;20052;-48
2023/09/02 09:33:31;;;;;;;9.38;3.22;;;;;;;21.09;52.70;101624.88;15682294;28;20040;-49
2023/09/02 09:41:09;;;;;;;6.53;3.20;;;;;;;21.79;50.91;101632.00;15682791;28;20045;-48
2023/09/02 09:48:47;;;;;;;8.35;4.85;;;;;;;21.37;51.99;101637.44;15643856;22;20485;-45
2023/09/02 09:56:24;;;;;;;7.10;3.00;;;;;;;21.90;52.51;101630.97;15616182;28;20033;-46
2023/09/02 10:03:58;;;;;;;6.55;3.17;;;;;;;22.60;50.11;101637.06;15615732;28;20050;-49
2023/09/02 10:11:36;;;;;;;9.57;3.47;;;;;;;21.80;51.13;101638.28;15608482;28;20212;-50
2023/09/02 10:19:12;;;;;;;8.75;3.40;;;;;;;22.87;47.18;101636.84;15607260;28;20050;-47
2023/09/02 10:26:54;;;;;;;4.50;3.00;;;;;;;21.70;49.23;101636.31;15597472;28;20038;-46
2023/09/02 10:34:36;;;;;;;6.05;3.08;;;;;;;22.37;48.36;101637.50;15613241;28;20439;-50
2023/09/02 10:42:12;;;;;;;9.48;3.20;;;;;;;21.99;48.98;101641.41;15604166;28;20375;-49
2023/09/02 10:49:47;;;;;;;6.15;3.05;;;;;;;23.14;47.97;101639.41;15613249;28;20069;-48
2023/09/02 10:57:21;;;;;;;5.88;2.63;;;;;;;23.97;45.26;101642.91;15612891;28;20059;-47
2023/09/02 11:04:59;;;;;;;5.78;2.80;;;;;;;23.49;48.49;101645.16;15610696;28;20052;-45
2023/09/02 11:12:34;;;;;;;7.18;2.58;;;;;;;22.19;49.59;101644.28;15603542;28;20120;-49
2023/09/02 11:20:09;;;;;;;7.07;2.63;;;;;;;21.78;51.07;101649.50;15609722;28;20053;-46
2023/09/02 11:27:47;;;;;;;4.07;2.40;;;;;;;22.08;50.39;101657.03;15610703;28;20088;-46
2023/09/02 11:35:25;;;;;;;6.50;2.78;;;;;;;23.35;45.85;101648.44;15610397;28;20046;-48
2023/09/02 11:43:03;;;;;;;5.47;2.25;;;;;;;24.87;44.17;101646.41;15608977;28;20167;-48
2023/09/02 11:50:38;;;;;;;5.95;2.20;;;;;;;23.63;44.96;101654.44;15609338;28;20039;-51
2023/09/02 11:58:17;;;;;;;4.95;2.10;;;;;;;23.52;46.25;101669.28;15611260;28;20072;-53
2023/09/02 12:05:56;;;;;;;5.45;2.38;;;;;;;21.98;48.60;101670.66;15597886;28;20097;-50
2023/09/02 12:13:31;;;;;;;5.22;2.80;;;;;;;21.51;51.40;101668.69;15564042;28;20226;-47
2023/09/02 12:21:05;;;;;;;8.90;3.00;;;;;;;20.67;53.43;101671.09;15590589;28;20116;-46
2023/09/02 12:28:48;;;;;;;7.40;3.13;;;;;;;21.35;51.53;101672.34;15589002;28;20051;-50
2023/09/02 12:36:32;;;;;;;9.75;3.17;;;;;;;21.66;53.55;101684.38;15604433;28;20556;-51
2023/09/02 12:44:15;;;;;;;5.45;3.50;;;;;;;20.87;53.66;101685.78;15613694;28;20107;-52
2023/09/02 12:51:48;;;;;;;6.82;3.67;;;;;;;20.71;53.84;101674.97;15615237;28;20037;-47
2023/09/02 12:59:22;;;;;;;5.35;3.47;;;;;;;21.22;55.05;101691.88;15619441;28;20100;-50
2023/09/02 13:06:56;;;;;;;8.63;3.78;;;;;;;21.28;54.24;101697.13;15618760;28;20046;-49
2023/09/02 13:14:31;;;;;;;9.75;3.33;;;;;;;21.50;54.16;101685.34;15610273;28;20103;-45
2023/09/02 13:22:04;;;;;;;7.80;3.60;;;;;;;21.50;55.04;101675.25;15610119;28;20443;-48
2023/09/02 13:29:40;;;;;;;6.88;3.75;;;;;;;21.67;55.34;101686.00;15618831;28;20042;-46
2023/09/02 13:37:23;;;;;;;6.63;3.50;;;;;;;21.88;54.41;101678.81;15580065;28;20052;-50
2023/09/02 13:45:12;;;;;;;9.20;3.88;;;;;;;22.14;52.35;101677.88;15614963;28;20033;-51
2023/09/02 13:52:50;;;;;;;5.95;3.67;;;;;;;21.99;52.80;101680.50;15615992;28;20046;-49
2023/09/02 14:00:28;;;;;;;7.10;3.65;;;;;;;22.00;54.08;101676.66;15615441;28;20517;-48
2023/09/02 14:08:01;;;;;;;7.32;3.90;;;;;;;21.91;54.80;101676.34;15597420;28;20049;-48
2023/09/02 14:15:37;;;;;;;7.13;4.07;;;;;;;21.79;54.06;101677.63;15589358;28;20045;-52
2023/09/02 14:23:10;;;;;;;7.03;3.70;;;;;;;21.88;54.34;101674.16;15613340;28;20037;-51
2023/09/02 14:30:45;;;;;;;7.65;4.15;;;;;;;22.17;53.71;101675.72;15607490;28;20045;-48
2023/09/02 14:38:18;;;;;;;10.02;3.97;;;;;;;22.26;54.10;101685.06;15593186;28;20545;-51
2023/09/02 14:45:52;;;;;;;6.25;3.83;;;;;;;22.49;54.28;101686.56;15590771;28;20047;-47
2023/09/02 14:53:27;;;;;;;7.05;3.95;;;;;;;22.33;53.32;101683.72;15598636;28;20047;-50
2023/09/02 15:01:03;;;;;;;6.68;3.90;;;;;;;21.97;52.20;101687.34;15606699;28;20056;-48
2023/09/02 15:08:41;;;;;;;7.75;3.72;;;;;;;22.47;52.29;101685.97;15606711;28;20045;-47
2023/09/02 15:16:19;;;;;;;7.60;3.25;;;;;;;22.28;51.93;101688.34;15605052;28;20387;-51
2023/09/02 15:23:52;;;;;;;5.30;2.72;;;;;;;22.27;50.24;101686.72;15608273;28;20037;-51
2023/09/02 15:31:26;;;;;;;4.70;2.40;;;;;;;21.94;50.26;101693.31;15610301;28;20076;-48
2023/09/02 15:39:00;;;;;;;4.38;2.42;;;;;;;21.65;50.99;101696.38;15610463;28;20178;-49
2023/09/02 15:46:36;;;;;;;5.68;2.70;;;;;;;21.60;51.59;101691.72;15609445;28;20129;-51
2023/09/02 15:54:10;;;;;;;4.85;3.10;;;;;;;21.33;52.83;101697.19;15596342;28;20045;-49
2023/09/02 16:01:46;;;;;;;5.10;3.15;;;;;;;21.35;53.54;101703.22;15610232;28;20049;-52
2023/09/02 16:09:19;;;;;;;6.47;3.50;;;;;;;21.42;54.27;101710.41;15608338;28;20510;-49
2023/09/02 16:17:00;;;;;;;8.23;4.65;;;;;;;21.77;54.40;101707.94;15588387;28;20048;-50
2023/09/02 16:24:34;;;;;;;5.53;3.80;;;;;;;21.51;54.15;101697.91;15606878;28;20351;-48
2023/09/02 16:32:09;;;;;;;7.10;3.72;;;;;;;21.14;54.77;101701.34;15605411;28;20045;-52
2023/09/02 16:39:42;;;;;;;7.20;4.20;;;;;;;21.55;54.17;101704.50;15608866;28;20512;-50
2023/09/02 16:47:23;;;;;;;6.05;4.07;;;;;;;21.36;55.13;101713.09;15599019;28;20075;-52
2023/09/02 16:54:56;;;;;;;6.75;4.10;;;;;;;21.65;55.77;101710.88;15590251;28;20056;-51
2023/09/02 17:02:37;;;;;;;9.68;4.75;;;;;;;21.27;56.40;101709.13;15591550;28;20041;-49
2023/09/02 17:10:16;;;;;;;8.75;5.10;;;;;;;21.25;57.02;101719.47;15589227;28;20053;-49
2023/09/02 17:17:52;;;;;;;8.45;5.20;;;;;;;20.91;58.48;101732.50;15575173;28;20049;-48
2023/09/02 17:25:28;;;;;;;7.57;4.70;;;;;;;21.18;58.31;101728.97;15593207;28;20764;-48
2023/09/02 17:33:03;;;;;;;7.13;4.55;;;;;;;20.97;58.51;101730.63;15592910;28;20231;-50
2023/09/02 17:40:36;;;;;;;8.82;4.88;;;;;;;20.92;59.23;101746.97;15598706;28;20034;-51
2023/09/02 17:48:11;;;;;;;9.82;5.57;;;;;;;20.70;60.01;101747.78;15602761;28;20121;-53
2023/09/02 17:55:47;;;;;;;11.10;6.97;;;;;;;20.45;61.32;101759.16;15589989;28;20045;-49
2023/09/02 18:03:21;;;;;;;10.85;6.80;;;;;;;20.19;61.77;101760.69;15603048;28;20465;-54
2023/09/02 18:10:55;;;;;;;12.63;7.18;;;;;;;20.09;62.42;101768.69;15605712;28;20054;-53
2023/09/02 18:18:29;;;;;;;12.73;7.47;;;;;;;19.78;63.03;101776.38;15592658;28;20106;-49
2023/09/02 18:26:02;;;;;;;10.35;8.00;;;;;;;19.52;63.96;101787.84;15588160;28;20039;-51
2023/09/02 18:33:39;;;;;;;10.93;8.20;;;;;;;19.38;65.31;101781.88;15606012;28;20246;-49
2023/09/02 18:41:12;;;;;;;11.63;7.70;;;;;;;19.32;65.18;101786.41;15569977;28;20123;-48
2023/09/02 18:48:47;;;;;;;9.90;7.50;;;;;;;19.00;66.21;101782.50;15583890;28;20053;-49
2023/09/02 18:56:20;;;;;;;13.25;7.40;;;;;;;19.04;65.62;101789.09;15597986;28;20045;-52
2023/09/02 19:03:54;;;;;;;9.90;8.05;;;;;;;18.90;66.78;101796.72;15600984;28;20100;-49
2023/09/02 19:11:28;;;;;;;12.80;9.52;;;;;;;18.68;67.47;101807.34;15592726;28;20141;-50
2023/09/02 19:19:03;;;;;;;14.20;9.13;;;;;;;18.81;67.57;101818.00;15598887;28;20108;-50
2023/09/02 19:26:36;;;;;;;13.77;10.65;;;;;;;18.90;67.25;101820.38;15601769;28;20038;-49
2023/09/02 19:34:11;;;;;;;20.00;16.50;;;;;;;18.72;67.66;101824.88;15593489;28;20037;-51
2023/09/02 19:41:44;;;;;;;34.00;22.05;;;;;;;18.57;68.01;101822.63;15606183;28;20063;-49
2023/09/02 19:49:22;;;;;;;25.48;19.05;;;;;;;18.44;68.20;101824.75;15574315;28;20117;-50
2023/09/02 19:56:55;;;;;;;23.45;14.43;;;;;;;18.33;69.30;101827.22;15589807;28;20164;-51
2023/09/02 20:04:30;;;;;;;16.15;11.63;;;;;;;18.58;67.40;101818.00;15608639;28;20121;-52
2023/09/02 20:12:04;;;;;;;17.08;13.30;;;;;;;18.39;67.83;101811.88;15601832;28;20391;-51
2023/09/02 20:19:39;;;;;;;16.35;13.95;;;;;;;18.14;68.30;101793.06;15609288;28;20096;-52
2023/09/02 20:27:18;;;;;;;16.65;14.07;;;;;;;18.06;68.07;101799.66;15604546;28;20526;-50
2023/09/02 20:34:53;;;;;;;19.45;14.10;;;;;;;17.85;68.42;101795.59;15599931;28;20151;-50
2023/09/02 20:42:28;;;;;;;21.38;14.32;;;;;;;17.48;69.83;101805.72;15590438;28;20392;-48
2023/09/02 20:50:03;;;;;;;16.80;13.75;;;;;;;17.48;69.28;101802.19;15601343;28;20502;-52
2023/09/02 20:57:36;;;;;;;15.63;13.50;;;;;;;17.28;69.79;101821.44;15617214;28;20045;-47
2023/09/02 21:05:11;;;;;;;21.65;18.45;;;;;;;17.57;69.26;101833.38;15586877;28;20564;-49
2023/09/02 21:12:44;;;;;;;22.50;17.25;;;;;;;17.44;70.21;101830.84;15605292;28;20141;-51
2023/09/02 21:20:19;;;;;;;23.75;17.75;;;;;;;17.44;71.19;101819.97;15614604;28;20045;-50
2023/09/02 21:27:54;;;;;;;25.42;20.00;;;;;;;17.75;69.98;101818.97;15608203;28;20053;-51
2023/09/02 21:35:28;;;;;;;21.38;17.17;;;;;;;17.55;71.13;101816.50;15592654;28;20087;-49
2023/09/02 21:43:02;;;;;;;21.33;15.52;;;;;;;17.73;70.57;101816.47;15616092;28;20152;-45
2023/09/02 21:50:36;;;;;;;19.48;13.52;;;;;;;17.63;70.60;101808.03;15617433;28;20402;-50
2023/09/02 21:58:09;;;;;;;15.38;12.13;;;;;;;17.68;69.83;101813.59;15613429;28;20055;-52
2023/09/02 22:05:43;;;;;;;;;;;;;;;17.54;70.99;101815.69;15613703;28;20061;-50
2023/09/02 22:13:16;;;;;;;17.25;12.00;;;;;;;17.73;71.20;101816.47;15606827;28;20179;-50
2023/09/02 22:20:54;;;;;;;12.57;10.55;;;;;;;17.66;71.05;101817.59;15615195;28;20072;-48
2023/09/02 22:28:27;;;;;;;12.50;11.20;;;;;;;17.57;71.42;101822.53;15612450;28;20053;-47
2023/09/02 22:36:01;;;;;;;14.90;11.27;;;;;;;17.52;71.59;101812.34;15613627;28;20049;-49
2023/09/02 22:43:35;;;;;;;14.30;11.85;;;;;;;17.72;71.06;101830.25;15612605;28;20371;-48
2023/09/02 22:51:09;;;;;;;16.20;13.30;;;;;;;17.83;70.96;101843.91;15611188;28;20061;-48
2023/09/02 22:58:43;;;;;;;14.48;12.45;;;;;;;17.89;70.43;101849.47;15599328;28;20045;-49
2023/09/02 23:06:17;;;;;;;13.68;12.27;;;;;;;17.78;71.10;101860.06;15611727;28;20041;-49
2023/09/02 23:13:51;;;;;;;17.08;12.52;;;;;;;17.80;71.41;101863.38;15600496;28;20045;-47
2023/09/02 23:21:26;;;;;;;15.50;12.38;;;;;;;17.89;70.90;101865.75;15612492;28;20049;-46
2023/09/02 23:28:59;;;;;;;16.63;12.43;;;;;;;17.80;71.21;101866.09;15611273;28;20056;-48
2023/09/02 23:36:34;;;;;;;15.07;12.90;;;;;;;18.03;70.38;101859.06;15609235;28;20085;-51
2023/09/02 23:44:08;;;;;;;17.42;13.45;;;;;;;17.97;70.91;101871.69;15606915;28;20068;-50
2023/09/02 23:51:42;;;;;;;;;;;;;;;17.97;70.23;101877.13;15594889;28;20561;-51
2023/09/02 23:59:16;;;;;;;15.50;12.82;;;;;;;17.90;70.56;101881.81;15610284;28;19956;-50
